Time;durP1;ratioP1;P1;durP2;ratioP2;P2;SDS_P1;SDS_P2;PMS_P1;PMS_P2;Temp;Humidity;BMP_temperature;BMP_pressure;BME280_temperature;BME280_humidity;BME280_pressure;Samples;Min_cycle;Max_cycle;Signal;HPM_P1;HPM_P2
2023/11/03 00:01:16;;;;;;;1.10;0.60;;;;;;;6.05;100.00;95364.84;5040510;28;20241;-80
2023/11/03 00:03:43;;;;;;;3.07;0.90;;;;;;;5.99;100.00;95358.38;5040738;28;20282;-80
2023/11/03 00:06:10;;;;;;;1.10;0.60;;;;;;;5.91;100.00;95363.53;5040710;28;20212;-80
2023/11/03 00:08:37;;;;;;;2.53;0.73;;;;;;;5.84;100.00;95359.84;5040747;28;20536;-80
2023/11/03 00:11:04;;;;;;;1.17;0.70;;;;;;;5.76;100.00;95362.34;5040907;28;20225;-80
2023/11/03 00:13:32;;;;;;;1.43;0.63;;;;;;;5.75;100.00;95362.47;5040375;28;20280;-80
2023/11/03 00:16:00;;;;;;;1.30;0.97;;;;;;;5.72;100.00;95363.59;5040644;28;20221;-80
2023/11/03 00:18:28;;;;;;;1.67;0.80;;;;;;;5.78;100.00;95362.16;5040175;28;20244;-80
2023/11/03 00:21:00;;;;;;;1.40;1.07;;;;;;;5.79;100.00;95377.75;5039997;28;20245;-80
2023/11/03 00:23:26;;;;;;;4.23;1.10;;;;;;;5.84;100.00;95380.81;5038726;28;20209;-80
2023/11/03 00:25:53;;;;;;;1.57;0.80;;;;;;;5.81;100.00;95378.47;5047598;28;20220;-80
2023/11/03 00:28:22;;;;;;;1.60;0.70;;;;;;;5.90;100.00;95374.16;5046371;28;20237;-79
2023/11/03 00:30:49;;;;;;;3.50;0.83;;;;;;;5.83;100.00;95378.31;5047697;28;20209;-80
2023/11/03 00:33:17;;;;;;;1.43;0.70;;;;;;;5.77;100.00;95377.09;5047303;28;20213;-81
2023/11/03 00:35:45;;;;;;;2.97;0.70;;;;;;;5.69;100.00;95390.06;5047198;28;20239;-81
2023/11/03 00:38:13;;;;;;;2.47;0.80;;;;;;;5.63;100.00;95380.16;5046833;28;20213;-81
2023/11/03 00:40:39;;;;;;;2.80;0.77;;;;;;;5.63;100.00;95382.75;5045294;28;20602;-81
2023/11/03 00:43:06;;;;;;;2.90;0.90;;;;;;;5.52;100.00;95382.97;5045137;28;20213;-81
2023/11/03 00:45:32;;;;;;;0.80;0.80;;;;;;;5.46;100.00;95383.53;5044798;28;20212;-81
2023/11/03 00:47:58;;;;;;;0.50;0.50;;;;;;;5.41;100.00;95374.44;5044772;28;20223;-81
2023/11/03 00:50:24;;;;;;;1.70;0.80;;;;;;;5.33;100.00;95375.16;5044639;28;20279;-81
2023/11/03 00:52:52;;;;;;;1.43;0.60;;;;;;;5.26;100.00;95379.28;5043895;28;20244;-81
2023/11/03 00:55:19;;;;;;;1.47;0.90;;;;;;;5.31;100.00;95377.06;5044372;28;20687;-81
2023/11/03 00:57:45;;;;;;;1.10;1.00;;;;;;;5.21;100.00;95378.06;5043109;28;20232;-81
2023/11/03 01:00:13;;;;;;;2.23;1.50;;;;;;;5.13;100.00;95376.13;5043227;28;20671;-81
2023/11/03 01:02:41;;;;;;;2.20;0.97;;;;;;;5.11;100.00;95372.84;5043088;28;20228;-81
2023/11/03 01:05:10;;;;;;;3.10;0.90;;;;;;;5.12;100.00;95369.25;5043430;28;20287;-81
2023/11/03 01:07:38;;;;;;;2.23;0.90;;;;;;;5.13;100.00;95368.28;5043618;28;20266;-81
2023/11/03 01:10:08;;;;;;;2.37;0.80;;;;;;;5.10;100.00;95365.97;5043390;28;20205;-81
2023/11/03 01:12:35;;;;;;;4.87;0.90;;;;;;;5.10;100.00;95365.13;5041944;28;20228;-81
2023/11/03 01:15:05;;;;;;;1.63;0.80;;;;;;;5.17;100.00;95367.03;5042526;28;20614;-81
2023/11/03 01:17:32;;;;;;;4.33;1.30;;;;;;;5.27;100.00;95378.34;5041884;28;20642;-81
2023/11/03 01:19:58;;;;;;;1.53;0.93;;;;;;;5.40;100.00;95373.63;5042645;28;20233;-81
2023/11/03 01:22:25;;;;;;;5.93;1.30;;;;;;;5.56;100.00;95378.25;5042401;28;20605;-81
2023/11/03 01:24:52;;;;;;;0.87;0.70;;;;;;;5.59;100.00;95378.78;5041849;28;20298;-81
2023/11/03 01:27:20;;;;;;;3.50;0.80;;;;;;;5.57;100.00;95382.53;5042210;28;20213;-81
2023/11/03 01:29:47;;;;;;;3.63;1.20;;;;;;;5.55;100.00;95387.09;5042150;28;20251;-81
2023/11/03 01:32:15;;;;;;;3.17;1.23;;;;;;;5.56;100.00;95402.63;5041624;28;20605;-81
2023/11/03 01:34:42;;;;;;;3.13;1.37;;;;;;;5.51;100.00;95402.22;5041771;28;20211;-81
2023/11/03 01:37:08;;;;;;;2.10;0.97;;;;;;;5.46;100.00;95409.72;5042403;28;20337;-81
2023/11/03 01:39:35;;;;;;;1.80;0.80;;;;;;;5.44;100.00;95411.63;5043246;28;20263;-82
2023/11/03 01:42:02;;;;;;;2.67;0.90;;;;;;;5.46;100.00;95425.44;5043245;28;20617;-81
2023/11/03 01:44:32;;;;;;;4.57;1.10;;;;;;;5.39;100.00;95413.88;5042226;28;20227;-81
2023/11/03 01:46:59;;;;;;;1.23;0.80;;;;;;;5.32;100.00;95417.19;5042251;28;20227;-81
2023/11/03 01:49:25;;;;;;;2.23;1.00;;;;;;;5.24;100.00;95419.66;5041733;28;20214;-82
2023/11/03 01:51:52;;;;;;;1.53;0.87;;;;;;;5.21;100.00;95415.53;5042428;28;20323;-81
2023/11/03 01:54:20;;;;;;;2.60;1.20;;;;;;;5.15;100.00;95413.50;5041800;28;20208;-81
2023/11/03 01:56:46;;;;;;;1.33;1.00;;;;;;;5.16;100.00;95422.16;5041581;28;20239;-81
2023/11/03 01:59:13;;;;;;;2.00;0.90;;;;;;;5.14;100.00;95435.38;5040106;28;20232;-81
2023/11/03 02:01:44;;;;;;;3.73;1.10;;;;;;;5.04;100.00;95428.50;5040843;28;20240;-81
2023/11/03 02:04:11;;;;;;;1.93;0.97;;;;;;;4.95;100.00;95418.84;5041140;28;20208;-81
2023/11/03 02:06:37;;;;;;;1.33;0.73;;;;;;;4.91;100.00;95410.47;5041369;28;20217;-81
2023/11/03 02:09:05;;;;;;;1.87;1.13;;;;;;;4.93;100.00;95421.59;5041588;28;20547;-81
2023/11/03 02:11:32;;;;;;;4.07;1.00;;;;;;;5.02;100.00;95409.50;5040602;28;20263;-81
2023/11/03 02:13:59;;;;;;;4.20;1.00;;;;;;;5.03;100.00;95416.38;5041459;28;20213;-81
2023/11/03 02:16:26;;;;;;;1.57;1.10;;;;;;;5.08;100.00;95409.75;5042523;28;20297;-81
2023/11/03 02:18:54;;;;;;;2.80;1.20;;;;;;;5.04;100.00;95411.00;5042372;28;20217;-81
2023/11/03 02:21:20;;;;;;;2.37;0.90;;;;;;;5.04;100.00;95407.53;5044970;28;20246;-81
2023/11/03 02:23:48;;;;;;;3.80;1.00;;;;;;;5.02;100.00;95410.28;5045515;28;20218;-81
2023/11/03 02:26:15;;;;;;;3.20;1.07;;;;;;;5.04;100.00;95412.78;5044395;28;20211;-81
2023/11/03 02:28:45;;;;;;;2.00;0.67;;;;;;;5.03;100.00;95408.53;5043717;28;20209;-81
2023/11/03 02:31:11;;;;;;;3.10;1.10;;;;;;;5.01;100.00;95413.06;5044255;28;20228;-81
2023/11/03 02:33:38;;;;;;;3.10;0.90;;;;;;;4.98;100.00;95414.19;5043370;28;20587;-81
2023/11/03 02:36:05;;;;;;;3.90;0.90;;;;;;;4.91;100.00;95418.31;5044851;28;20220;-81
2023/11/03 02:38:31;;;;;;;1.93;0.80;;;;;;;4.93;100.00;95421.59;5044023;28;20216;-81
2023/11/03 02:40:59;;;;;;;2.10;0.90;;;;;;;4.85;100.00;95418.84;5044275;28;20240;-81
2023/11/03 02:43:26;;;;;;;1.27;0.90;;;;;;;4.75;100.00;95418.03;5042242;28;20239;-80
2023/11/03 02:45:52;;;;;;;6.60;1.10;;;;;;;4.69;100.00;95431.63;5042100;28;20227;-81
2023/11/03 02:48:19;;;;;;;4.73;1.10;;;;;;;4.58;100.00;95423.91;5041989;28;20209;-81
2023/11/03 02:50:45;;;;;;;4.43;0.97;;;;;;;4.51;100.00;95428.03;5043648;28;20208;-81
2023/11/03 02:53:12;;;;;;;2.17;0.90;;;;;;;4.44;100.00;95426.94;5042957;28;20526;-81
2023/11/03 02:55:39;;;;;;;3.97;0.90;;;;;;;4.46;100.00;95425.00;5043115;28;20294;-81
2023/11/03 02:58:07;;;;;;;2.07;0.93;;;;;;;4.50;100.00;95423.78;5043353;28;20213;-81
2023/11/03 03:00:34;;;;;;;2.20;1.20;;;;;;;4.56;100.00;95423.22;5043355;28;20242;-81
2023/11/03 03:03:01;;;;;;;2.17;1.03;;;;;;;4.60;100.00;95424.63;5041559;28;20239;-81
2023/11/03 03:05:27;;;;;;;2.00;1.10;;;;;;;4.66;100.00;95423.25;5042229;28;20219;-81
2023/11/03 03:07:54;;;;;;;2.40;0.80;;;;;;;4.69;100.00;95418.56;5040977;28;20230;-81
2023/11/03 03:10:21;;;;;;;2.47;1.17;;;;;;;4.77;100.00;95416.09;5041827;28;20209;-81
2023/11/03 03:12:48;;;;;;;2.83;1.20;;;;;;;4.79;100.00;95416.78;5039975;28;20235;-81
2023/11/03 03:15:16;;;;;;;2.70;1.27;;;;;;;4.76;100.00;95414.44;5040472;28;20228;-81
2023/11/03 03:17:42;;;;;;;1.97;1.40;;;;;;;4.71;100.00;95421.84;5040921;28;20212;-81
2023/11/03 03:20:09;;;;;;;2.80;1.27;;;;;;;4.80;100.00;95420.22;5040881;28;20226;-80
2023/11/03 03:22:36;;;;;;;2.57;1.33;;;;;;;4.71;100.00;95410.59;5040661;28;20250;-81
2023/11/03 03:25:02;;;;;;;3.93;1.40;;;;;;;4.67;100.00;95411.81;5041411;28;20294;-81
2023/11/03 03:27:29;;;;;;;3.43;1.50;;;;;;;4.67;100.00;95417.88;5050319;28;20203;-81
2023/11/03 03:29:55;;;;;;;2.43;1.77;;;;;;;4.70;100.00;95416.78;5059857;28;20211;-81
2023/11/03 03:32:23;;;;;;;3.27;1.90;;;;;;;4.68;100.00;95411.69;5060837;28;20727;-81
2023/11/03 03:34:49;;;;;;;3.83;1.80;;;;;;;4.78;100.00;95409.91;5060862;28;20215;-81
2023/11/03 03:37:16;;;;;;;2.60;1.80;;;;;;;4.81;100.00;95407.00;5060518;28;20207;-81
2023/11/03 03:39:44;;;;;;;4.63;1.93;;;;;;;4.88;100.00;95400.25;5061934;28;20217;-81
2023/11/03 03:42:10;;;;;;;6.30;2.50;;;;;;;4.88;100.00;95402.88;5061861;28;20228;-81
2023/11/03 03:44:40;;;;;;;5.33;1.80;;;;;;;4.93;100.00;95405.91;5071402;28;20208;-81
2023/11/03 03:47:07;;;;;;;4.90;2.23;;;;;;;4.91;100.00;95402.63;5069350;28;20613;-81
2023/11/03 03:49:35;;;;;;;5.07;1.47;;;;;;;4.92;100.00;95393.78;5068865;28;20589;-81
2023/11/03 03:52:03;;;;;;;5.73;2.33;;;;;;;4.99;100.00;95394.88;5068865;28;20230;-81
2023/11/03 03:54:30;;;;;;;2.47;1.93;;;;;;;4.99;100.00;95394.06;5066938;28;20207;-81
2023/11/03 03:56:56;;;;;;;5.37;1.73;;;;;;;5.05;100.00;95394.34;5066965;28;20208;-81
2023/11/03 03:59:22;;;;;;;4.00;1.80;;;;;;;5.20;100.00;95397.34;5066903;28;20212;-81
2023/11/03 04:01:49;;;;;;;4.33;2.03;;;;;;;5.26;100.00;95402.03;5065715;28;20231;-81
2023/11/03 04:04:15;;;;;;;3.03;1.60;;;;;;;5.36;100.00;95401.03;5064811;28;20562;-81
2023/11/03 04:06:44;;;;;;;4.90;1.80;;;;;;;5.61;100.00;95410.91;5065393;28;20234;-81
2023/11/03 04:09:11;;;;;;;4.47;1.60;;;;;;;5.64;100.00;95418.50;5064561;28;20215;-81
2023/11/03 04:11:37;;;;;;;4.93;1.40;;;;;;;5.65;100.00;95428.00;5063378;28;20235;-81
2023/11/03 04:14:04;;;;;;;3.27;1.37;;;;;;;5.69;100.00;95425.94;5063893;28;20203;-81
2023/11/03 04:16:34;;;;;;;2.27;1.40;;;;;;;5.78;100.00;95430.28;5063719;28;20222;-81
2023/11/03 04:19:00;;;;;;;2.40;1.60;;;;;;;5.81;100.00;95427.44;5062886;28;20211;-81
2023/11/03 04:21:27;;;;;;;3.73;1.50;;;;;;;5.86;100.00;95423.41;5063309;28;20243;-81
2023/11/03 04:23:55;;;;;;;2.80;1.60;;;;;;;5.94;100.00;95410.44;5062530;28;20218;-81
2023/11/03 04:26:22;;;;;;;3.90;1.57;;;;;;;6.00;100.00;95412.47;5062531;28;20212;-81
2023/11/03 04:28:48;;;;;;;2.43;1.40;;;;;;;6.03;100.00;95412.19;5062339;28;20204;-81
2023/11/03 04:31:15;;;;;;;3.43;1.47;;;;;;;6.05;100.00;95401.56;5061505;28;20219;-81
2023/11/03 04:33:43;;;;;;;1.77;1.23;;;;;;;5.99;100.00;95402.94;5061436;28;20211;-81
2023/11/03 04:36:11;;;;;;;3.33;1.40;;;;;;;6.00;100.00;95402.00;5061274;28;20204;-81
2023/11/03 04:38:38;;;;;;;3.53;1.83;;;;;;;6.00;100.00;95402.00;5061860;28;20208;-81
2023/11/03 04:41:06;;;;;;;10.53;1.30;;;;;;;6.03;100.00;95398.22;5060734;28;20733;-81
2023/11/03 04:43:35;;;;;;;3.10;1.20;;;;;;;6.08;100.00;95399.47;5061787;28;20214;-81
2023/11/03 04:46:03;;;;;;;3.43;1.13;;;;;;;6.06;100.00;95393.56;5061527;28;20292;-81
2023/11/03 04:48:29;;;;;;;2.37;1.10;;;;;;;6.02;100.00;95402.66;5062103;28;20636;-81
2023/11/03 04:50:56;;;;;;;2.13;1.20;;;;;;;6.02;100.00;95410.53;5061712;28;20575;-81
2023/11/03 04:53:22;;;;;;;2.03;1.20;;;;;;;6.05;100.00;95423.34;5062176;28;20212;-81
2023/11/03 04:55:49;;;;;;;3.47;1.10;;;;;;;6.05;100.00;95418.09;5061879;28;20203;-81
2023/11/03 04:58:18;;;;;;;3.23;1.23;;;;;;;6.13;100.00;95428.69;5062184;28;20278;-81
2023/11/03 05:00:45;;;;;;;1.70;0.80;;;;;;;6.22;100.00;95422.56;5061255;28;20216;-81
2023/11/03 05:03:11;;;;;;;2.33;1.07;;;;;;;6.26;100.00;95416.06;5061090;28;20208;-81
2023/11/03 05:05:38;;;;;;;1.80;0.93;;;;;;;6.34;100.00;95413.53;5060997;28;20211;-81
2023/11/03 05:08:05;;;;;;;2.93;1.07;;;;;;;6.34;100.00;95408.28;5060621;28;20290;-82
2023/11/03 05:10:31;;;;;;;0.80;0.70;;;;;;;6.42;100.00;95407.56;5060866;28;20276;-81
2023/11/03 05:12:57;;;;;;;3.03;1.17;;;;;;;6.47;100.00;95413.22;5059629;28;20299;-81
2023/11/03 05:15:25;;;;;;;2.30;0.80;;;;;;;6.47;100.00;95414.03;5060746;28;20247;-81
2023/11/03 05:17:52;;;;;;;5.37;0.90;;;;;;;6.51;100.00;95414.53;5060578;28;20226;-81
2023/11/03 05:20:19;;;;;;;2.50;0.87;;;;;;;6.51;100.00;95423.25;5060183;28;20243;-81
2023/11/03 05:22:46;;;;;;;2.93;0.90;;;;;;;6.54;100.00;95425.56;5060527;28;20270;-81
2023/11/03 05:25:13;;;;;;;1.57;0.70;;;;;;;6.57;100.00;95422.66;5060171;28;20559;-81
2023/11/03 05:27:40;;;;;;;3.20;1.20;;;;;;;6.58;100.00;95431.34;5060325;28;20213;-81
2023/11/03 05:30:08;;;;;;;3.60;1.07;;;;;;;6.62;100.00;95432.72;5060479;28;20657;-81
2023/11/03 05:32:36;;;;;;;1.80;0.83;;;;;;;6.62;100.00;95430.94;5060374;28;20247;-81
2023/11/03 05:35:03;;;;;;;2.60;0.80;;;;;;;6.64;100.00;95442.09;5060280;28;20203;-81
2023/11/03 05:37:30;;;;;;;2.13;1.10;;;;;;;6.68;100.00;95448.72;5061166;28;20216;-81
2023/11/03 05:39:56;;;;;;;1.10;0.73;;;;;;;6.76;100.00;95437.44;5060984;28;20679;-81
2023/11/03 05:42:24;;;;;;;1.90;0.80;;;;;;;6.81;100.00;95454.41;5060794;28;20232;-81
2023/11/03 05:44:50;;;;;;;2.63;0.93;;;;;;;6.79;100.00;95451.09;5060874;28;20211;-81
2023/11/03 05:47:17;;;;;;;1.37;1.00;;;;;;;6.84;100.00;95446.25;5060765;28;20212;-82
2023/11/03 05:49:45;;;;;;;1.50;0.90;;;;;;;6.86;100.00;95457.44;5061636;28;20208;-81
2023/11/03 05:52:11;;;;;;;3.73;1.60;;;;;;;6.87;100.00;95453.84;5060790;28;20231;-81
2023/11/03 05:54:38;;;;;;;2.27;0.90;;;;;;;6.84;100.00;95462.00;5065946;28;20208;-81
2023/11/03 05:57:04;;;;;;;2.03;1.17;;;;;;;6.89;100.00;95467.63;5065519;28;20215;-82
2023/11/03 05:59:31;;;;;;;4.23;1.07;;;;;;;6.85;100.00;95473.31;5064687;28;20222;-81
2023/11/03 06:01:57;;;;;;;3.63;1.20;;;;;;;6.88;100.00;95471.22;5065076;28;20258;-81
2023/11/03 06:04:24;;;;;;;3.43;1.30;;;;;;;6.87;100.00;95476.63;5064636;28;20208;-81
2023/11/03 06:06:52;;;;;;;1.40;1.17;;;;;;;6.87;100.00;95480.09;5064973;28;20211;-81
2023/11/03 06:09:18;;;;;;;1.57;1.00;;;;;;;6.90;100.00;95479.78;5064531;28;20212;-81
2023/11/03 06:11:45;;;;;;;2.33;0.90;;;;;;;6.89;100.00;95485.19;5065387;28;20229;-81
2023/11/03 06:14:11;;;;;;;1.20;0.83;;;;;;;6.88;100.00;95479.09;5064416;28;20209;-81
2023/11/03 06:16:38;;;;;;;1.90;0.80;;;;;;;6.91;100.00;95480.59;5064732;28;20216;-81
2023/11/03 06:19:05;;;;;;;3.43;0.80;;;;;;;6.91;100.00;95491.91;5065350;28;20219;-81
2023/11/03 06:21:32;;;;;;;2.17;1.07;;;;;;;6.97;100.00;95488.69;5064958;28;20232;-81
2023/11/03 06:23:59;;;;;;;2.53;0.73;;;;;;;7.02;100.00;95499.59;5063720;28;20238;-81
2023/11/03 06:26:26;;;;;;;2.13;1.00;;;;;;;7.06;100.00;95508.00;5064292;28;20235;-81
2023/11/03 06:28:56;;;;;;;2.27;0.87;;;;;;;7.07;100.00;95507.84;5066033;28;20212;-81
2023/11/03 06:31:22;;;;;;;1.33;0.90;;;;;;;7.07;100.00;95502.59;5065467;28;20229;-81
2023/11/03 06:33:49;;;;;;;1.43;0.70;;;;;;;7.09;100.00;95505.91;5065051;28;20581;-81
2023/11/03 06:36:17;;;;;;;1.73;0.77;;;;;;;7.09;100.00;95516.41;5065784;28;20211;-81
2023/11/03 06:38:43;;;;;;;2.43;1.10;;;;;;;7.12;100.00;95517.91;5066159;28;20212;-81
2023/11/03 06:41:12;;;;;;;3.17;0.90;;;;;;;7.13;100.00;95523.03;5065027;28;20229;-81
2023/11/03 06:43:40;;;;;;;2.13;1.60;;;;;;;7.10;100.00;95518.06;5065346;28;20223;-81
2023/11/03 06:46:08;;;;;;;1.80;0.80;;;;;;;7.10;100.00;95518.06;5065764;28;20212;-81
2023/11/03 06:48:35;;;;;;;1.83;0.97;;;;;;;7.05;100.00;95524.72;5064679;28;20259;-81
2023/11/03 06:51:01;;;;;;;4.30;0.97;;;;;;;7.01;100.00;95534.69;5064154;28;20238;-81
2023/11/03 06:53:28;;;;;;;1.23;0.77;;;;;;;6.99;100.00;95536.66;5062603;28;20212;-81
2023/11/03 06:55:55;;;;;;;2.17;0.80;;;;;;;6.97;100.00;95543.84;5063199;28;20593;-81
2023/11/03 06:58:23;;;;;;;1.93;1.20;;;;;;;6.98;100.00;95545.50;5062939;28;20219;-81
2023/11/03 07:00:50;;;;;;;1.63;1.00;;;;;;;6.95;100.00;95551.03;5062676;28;20208;-81
2023/11/03 07:03:16;;;;;;;1.77;0.80;;;;;;;6.96;100.00;95552.69;5061081;28;20228;-81
2023/11/03 07:05:45;;;;;;;1.97;0.90;;;;;;;6.96;100.00;95563.19;5062214;28;20584;-81
2023/11/03 07:08:11;;;;;;;1.53;0.97;;;;;;;6.95;100.00;95558.09;5063943;28;20606;-81
2023/11/03 07:10:38;;;;;;;1.93;1.00;;;;;;;6.93;100.00;95558.25;5064641;28;20211;-81
2023/11/03 07:13:05;;;;;;;2.20;0.90;;;;;;;6.93;100.00;95565.28;5063158;28;20214;-81
2023/11/03 07:15:36;;;;;;;3.97;1.00;;;;;;;6.95;100.00;95571.22;5064116;28;20246;-81
2023/11/03 07:18:04;;;;;;;3.43;0.90;;;;;;;6.96;100.00;95565.81;5064627;28;20235;-81
2023/11/03 07:20:31;;;;;;;4.03;1.40;;;;;;;6.97;100.00;95570.09;5063450;28;20223;-81
2023/11/03 07:22:58;;;;;;;3.93;0.90;;;;;;;6.94;100.00;95565.16;5062141;28;20261;-81
2023/11/03 07:25:25;;;;;;;2.20;0.97;;;;;;;6.92;100.00;95569.72;5060961;28;20208;-81
2023/11/03 07:27:52;;;;;;;1.33;1.00;;;;;;;6.87;100.00;95569.34;5061830;28;20235;-81
2023/11/03 07:30:19;;;;;;;4.40;0.93;;;;;;;6.91;100.00;95567.25;5061405;28;20352;-81
2023/11/03 07:32:47;;;;;;;2.53;0.93;;;;;;;6.90;100.00;95576.91;5059354;28;20225;-80
2023/11/03 07:35:14;;;;;;;1.13;0.90;;;;;;;6.87;100.00;95574.59;5058288;28;20742;-78
2023/11/03 07:37:41;;;;;;;3.47;1.13;;;;;;;6.88;100.00;95573.59;5058498;28;20211;-80
2023/11/03 07:40:10;;;;;;;4.00;1.17;;;;;;;6.90;100.00;95583.97;5057669;28;20235;-80
2023/11/03 07:42:37;;;;;;;4.30;1.37;;;;;;;6.95;100.00;95582.53;5057894;28;20235;-81
2023/11/03 07:45:04;;;;;;;2.27;1.30;;;;;;;6.95;100.00;95585.16;5058999;28;20214;-81
2023/11/03 07:47:30;;;;;;;1.07;0.97;;;;;;;7.06;100.00;95592.88;5059998;28;20207;-81
2023/11/03 07:49:58;;;;;;;2.80;1.23;;;;;;;7.09;100.00;95589.13;5059913;28;20213;-80
2023/11/03 07:52:25;;;;;;;2.03;1.00;;;;;;;7.13;100.00;95591.28;5059300;28;20231;-80
2023/11/03 07:54:52;;;;;;;1.90;1.00;;;;;;;7.21;100.00;95588.75;5058991;28;20207;-81
2023/11/03 07:57:18;;;;;;;2.27;1.00;;;;;;;7.25;100.00;95584.88;5056871;28;20216;-80
2023/11/03 07:59:45;;;;;;;0.83;0.73;;;;;;;7.28;100.00;95582.78;5056961;28;20220;-80
2023/11/03 08:02:12;;;;;;;1.47;0.90;;;;;;;7.30;100.00;95582.63;5056702;28;20240;-80
2023/11/03 08:04:40;;;;;;;2.37;1.03;;;;;;;7.34;100.00;95581.38;5056130;28;20209;-81
2023/11/03 08:07:08;;;;;;;2.37;1.30;;;;;;;7.37;100.00;95586.31;5057597;28;20209;-80
2023/11/03 08:09:35;;;;;;;1.93;1.13;;;;;;;7.40;100.00;95588.63;5056626;28;20592;-80
2023/11/03 08:12:02;;;;;;;3.83;1.73;;;;;;;7.46;100.00;95590.66;5055859;28;20298;-80
2023/11/03 08:14:29;;;;;;;1.30;1.00;;;;;;;7.48;100.00;95583.47;5057141;28;20232;-81
2023/11/03 08:16:56;;;;;;;4.20;1.20;;;;;;;7.52;100.00;95587.44;5056925;28;20212;-80
2023/11/03 08:19:22;;;;;;;3.53;1.27;;;;;;;7.56;100.00;95591.44;5056385;28;20204;-81
2023/11/03 08:21:48;;;;;;;1.60;1.07;;;;;;;7.61;100.00;95591.81;5057053;28;20237;-80
2023/11/03 08:24:15;;;;;;;1.57;1.20;;;;;;;7.65;100.00;95594.00;5055656;28;20212;-81
2023/11/03 08:26:43;;;;;;;2.00;0.73;;;;;;;7.72;100.00;95602.13;5056905;28;20216;-81
2023/11/03 08:29:09;;;;;;;1.47;1.10;;;;;;;7.78;100.00;95591.81;5056871;28;20240;-80
2023/11/03 08:31:36;;;;;;;1.63;1.00;;;;;;;7.84;100.00;95600.91;5057629;28;20914;-81
2023/11/03 08:34:04;;;;;;;2.23;1.00;;;;;;;7.93;100.00;95607.88;5055496;28;20802;-81
2023/11/03 08:36:31;;;;;;;2.38;1.10;;;;;;;8.06;100.00;95613.59;5050311;28;20447;-81
2023/11/03 08:38:58;;;;;;;2.07;0.87;;;;;;;8.13;100.00;95604.09;5054319;28;20206;-81
2023/11/03 08:41:26;;;;;;;0.73;0.67;;;;;;;8.22;100.00;95611.13;5047803;28;20698;-80
2023/11/03 08:43:53;;;;;;;2.23;0.70;;;;;;;8.26;100.00;95604.59;5059829;28;20241;-81
2023/11/03 08:46:19;;;;;;;1.50;0.90;;;;;;;8.35;100.00;95606.28;5056071;28;20217;-81
2023/11/03 08:48:47;;;;;;;2.20;1.13;;;;;;;8.43;100.00;95627.41;5053458;28;20616;-81
2023/11/03 08:51:15;;;;;;;1.10;0.80;;;;;;;8.46;100.00;95621.84;5056006;28;20240;-81
2023/11/03 08:53:43;;;;;;;3.53;1.10;;;;;;;8.52;100.00;95626.50;5057041;28;20344;-81
2023/11/03 08:56:12;;;;;;;1.50;1.00;;;;;;;8.53;100.00;95630.78;5055073;28;20996;-81
2023/11/03 08:58:40;;;;;;;3.33;1.07;;;;;;;8.60;100.00;95634.44;5056212;28;20647;-81
2023/11/03 09:01:07;;;;;;;3.17;1.00;;;;;;;8.64;100.00;95630.53;5057452;28;20230;-81
2023/11/03 09:03:34;;;;;;;1.17;1.00;;;;;;;8.71;100.00;95632.38;5056205;28;20283;-81
2023/11/03 09:06:00;;;;;;;1.93;0.90;;;;;;;8.74;100.00;95631.22;5053181;28;20215;-81
2023/11/03 09:08:27;;;;;;;1.10;1.00;;;;;;;8.75;100.00;95640.81;5048717;28;20584;-81
2023/11/03 09:10:53;;;;;;;4.63;1.07;;;;;;;8.79;100.00;95644.75;5057588;28;20230;-81
2023/11/03 09:13:20;;;;;;;4.23;0.80;;;;;;;8.83;100.00;95643.47;5057767;28;20242;-81
2023/11/03 09:15:48;;;;;;;3.17;0.90;;;;;;;8.84;100.00;95643.31;5058849;28;20599;-80
2023/11/03 09:18:15;;;;;;;1.60;1.00;;;;;;;8.84;100.00;95638.06;5058321;28;20211;-82
2023/11/03 09:20:42;;;;;;;1.10;0.80;;;;;;;8.91;100.00;95630.34;5058199;28;20583;-81
2023/11/03 09:23:08;;;;;;;3.53;0.90;;;;;;;8.84;100.00;95622.25;5056314;28;20226;-81
2023/11/03 09:25:35;;;;;;;3.43;1.07;;;;;;;8.77;100.00;95617.75;5058253;28;20226;-81
2023/11/03 09:28:02;;;;;;;1.03;0.70;;;;;;;8.77;100.00;95620.41;5055243;28;20674;-81
2023/11/03 09:30:29;;;;;;;0.90;0.73;;;;;;;8.77;100.00;95621.22;5056435;28;20321;-81
2023/11/03 09:32:57;;;;;;;2.63;0.60;;;;;;;8.84;100.00;95617.00;5057763;28;20222;-81
2023/11/03 09:35:24;;;;;;;1.87;0.80;;;;;;;8.87;100.00;95621.94;5048530;28;20232;-81
2023/11/03 09:37:50;;;;;;;3.43;0.80;;;;;;;8.88;100.00;95617.50;5050128;28;20300;-81
2023/11/03 09:40:20;;;;;;;1.57;0.90;;;;;;;8.98;100.00;95608.50;5052006;28;20221;-79
2023/11/03 09:42:47;;;;;;;4.43;1.00;;;;;;;9.03;100.00;95606.22;5058571;28;20231;-81
2023/11/03 09:45:16;;;;;;;1.53;0.77;;;;;;;9.00;100.00;95606.53;5056800;28;20204;-81
2023/11/03 09:50:28;;;;;;;2.00;0.80;;;;;;;9.08;100.00;95603.09;5059796;28;20210;-82
2023/11/03 09:52:55;;;;;;;1.20;0.83;;;;;;;9.05;100.00;95598.16;5064046;28;20224;-82
2023/11/03 09:55:22;;;;;;;1.10;0.70;;;;;;;9.04;100.00;95593.84;5065344;28;20234;-82
2023/11/03 09:57:50;;;;;;;2.57;1.07;;;;;;;9.18;100.00;95603.81;5061838;28;20219;-82
2023/11/03 10:00:19;;;;;;;1.03;0.70;;;;;;;9.26;100.00;95612.59;5058390;28;20300;-82
2023/11/03 10:02:47;;;;;;;2.17;0.70;;;;;;;9.32;100.00;95611.13;5057343;28;20252;-81
2023/11/03 10:05:17;;;;;;;1.57;0.80;;;;;;;9.37;100.00;95603.56;5058525;28;20273;-82
2023/11/03 10:08:01;;;;;;;1.53;0.80;;;;;;;9.40;100.00;95608.50;5058060;28;20201;-82
2023/11/03 10:10:28;;;;;;;1.30;0.70;;;;;;;9.48;100.00;95601.44;5057594;28;20217;-83
2023/11/03 10:12:54;;;;;;;1.97;0.80;;;;;;;9.44;100.00;95594.03;5057180;28;20226;-80
2023/11/03 10:15:21;;;;;;;1.27;0.73;;;;;;;9.48;100.00;95595.34;5058077;28;20217;-82
2023/11/03 10:17:48;;;;;;;0.87;0.60;;;;;;;9.55;100.00;95596.38;5059266;28;20214;-82
2023/11/03 10:20:15;;;;;;;0.77;0.50;;;;;;;9.55;100.00;95589.25;5060006;28;20214;-82
2023/11/03 10:22:42;;;;;;;1.23;0.70;;;;;;;9.68;100.00;95586.16;5059741;28;20595;-82
2023/11/03 10:25:10;;;;;;;0.57;0.50;;;;;;;9.73;100.00;95589.16;5059441;28;20207;-82
2023/11/03 10:27:37;;;;;;;1.33;0.70;;;;;;;9.80;100.00;95580.41;5062522;28;20205;-80
2023/11/03 10:30:05;;;;;;;2.43;0.60;;;;;;;9.82;99.54;95581.09;5063635;28;20202;-81
2023/11/03 10:32:33;;;;;;;0.67;0.40;;;;;;;9.81;97.41;95566.25;5064613;28;20281;-83
2023/11/03 10:35:02;;;;;;;0.73;0.60;;;;;;;10.01;97.03;95562.31;5054207;28;20713;-80
2023/11/03 10:37:31;;;;;;;0.60;0.40;;;;;;;10.05;97.28;95563.66;5056748;28;20204;-83
2023/11/03 10:39:57;;;;;;;1.83;0.70;;;;;;;10.11;95.84;95556.88;5060700;28;20469;-83
2023/11/03 10:42:28;;;;;;;1.23;0.53;;;;;;;10.12;95.90;95563.81;5063144;28;20235;-83
2023/11/03 10:44:58;;;;;;;0.90;0.60;;;;;;;10.13;95.55;95555.75;5063396;28;20252;-83
2023/11/03 10:47:29;;;;;;;0.67;0.50;;;;;;;10.04;93.14;95550.63;5063777;28;20216;-83
2023/11/03 10:50:05;;;;;;;0.87;0.50;;;;;;;10.05;92.55;95552.28;5056562;28;21064;-83
2023/11/03 10:52:40;;;;;;;1.17;0.40;;;;;;;10.03;92.04;95548.97;5057847;28;20229;-83
2023/11/03 10:55:13;;;;;;;0.50;0.50;;;;;;;10.04;91.75;95555.91;5062526;28;20208;-81
2023/11/03 10:57:42;;;;;;;1.10;0.60;;;;;;;10.06;91.25;95546.00;5063979;28;20235;-81
2023/11/03 11:00:17;;;;;;;0.63;0.53;;;;;;;10.11;92.15;95551.63;5065482;28;20648;-81
2023/11/03 11:02:53;;;;;;;0.67;0.50;;;;;;;10.09;91.77;95550.97;5064896;28;20237;-81
2023/11/03 11:05:27;;;;;;;1.13;0.30;;;;;;;10.12;90.63;95547.97;5063036;28;20212;-80
2023/11/03 11:07:58;;;;;;;0.40;0.40;;;;;;;10.19;90.88;95543.69;5080844;28;20231;-80
2023/11/03 11:10:38;;;;;;;0.40;0.40;;;;;;;10.24;89.71;95546.66;5085256;28;20225;-80
2023/11/03 11:13:15;;;;;;;0.70;0.60;;;;;;;10.16;90.65;95557.22;5083404;28;20211;-81
2023/11/03 11:15:43;;;;;;;1.47;0.50;;;;;;;10.19;88.68;95548.97;5080844;28;20215;-80
2023/11/03 11:18:15;;;;;;;1.00;0.37;;;;;;;10.22;89.07;95543.38;5080654;28;20299;-80
2023/11/03 11:20:51;;;;;;;0.93;0.57;;;;;;;10.02;87.34;95542.84;5079251;28;20210;-81
2023/11/03 11:23:19;;;;;;;1.03;0.40;;;;;;;10.11;88.70;95552.44;5079258;28;20584;-81
2023/11/03 11:25:47;;;;;;;1.13;0.50;;;;;;;10.24;89.78;95554.56;5080493;28;20209;-81
2023/11/03 11:28:38;;;;;;;2.63;0.60;;;;;;;10.27;89.95;95555.06;5080379;28;20220;-82
2023/11/03 11:31:39;;;;;;;1.93;0.93;;;;;;;10.30;89.38;95557.38;5079399;28;20235;-82
2023/11/03 11:34:07;;;;;;;0.40;0.40;;;;;;;10.37;89.06;95562.81;5078833;28;20203;-81
2023/11/03 11:36:34;;;;;;;0.77;0.50;;;;;;;10.31;87.86;95558.19;5079055;28;20209;-82
2023/11/03 11:39:03;;;;;;;0.53;0.50;;;;;;;10.30;87.56;95559.19;5081714;28;20209;-83